createdAt,value
2022-11-09T00:02:23.215Z,16.60
2022-11-09T00:04:56.905Z,22.85
2022-11-09T00:07:32.775Z,23.92
2022-11-09T00:10:08.106Z,27.13
2022-11-09T00:12:41.888Z,22.48
2022-11-09T00:15:15.569Z,21.42
2022-11-09T00:17:49.174Z,21.02
2022-11-09T00:20:22.579Z,25.80
2022-11-09T00:22:58.096Z,23.77
2022-11-09T00:25:32.271Z,22.13
2022-11-09T00:28:06.251Z,22.25
2022-11-09T00:30:39.641Z,20.02
2022-11-09T00:33:13.241Z,13.83
2022-11-09T00:35:48.362Z,13.93
2022-11-09T00:38:22.464Z,15.20
2022-11-09T00:40:55.972Z,13.95
2022-11-09T00:43:29.649Z,15.55
2022-11-09T00:46:03.453Z,17.87
2022-11-09T00:48:37.197Z,19.12
2022-11-09T00:51:11.920Z,15.05
2022-11-09T00:53:47.687Z,18.00
2022-11-09T00:56:21.462Z,22.30
2022-11-09T00:58:57.095Z,17.17
2022-11-09T01:01:30.864Z,17.55
2022-11-09T01:04:04.511Z,19.30
2022-11-09T01:06:39.412Z,23.25
2022-11-09T01:09:14.557Z,20.75
2022-11-09T01:11:48.100Z,20.57
2022-11-09T01:14:21.719Z,17.98
2022-11-09T01:16:55.238Z,17.82
2022-11-09T01:19:30.493Z,17.40
2022-11-09T01:22:04.047Z,15.32
2022-11-09T01:24:37.549Z,15.40
2022-11-09T01:27:11.332Z,14.65
2022-11-09T01:29:44.830Z,14.75
2022-11-09T01:32:18.464Z,15.25
2022-11-09T01:34:51.979Z,14.40
2022-11-09T01:37:25.612Z,15.95
2022-11-09T01:39:59.188Z,15.32
2022-11-09T01:42:38.499Z,16.00
2022-11-09T01:45:28.128Z,16.37
2022-11-09T01:48:08.248Z,15.40
2022-11-09T01:50:45.260Z,15.80
2022-11-09T01:53:21.599Z,15.40
2022-11-09T01:55:57.826Z,12.68
2022-11-09T01:58:34.569Z,17.05
2022-11-09T02:01:10.622Z,18.27
2022-11-09T02:03:47.394Z,16.82
2022-11-09T02:06:24.322Z,18.17
2022-11-09T02:09:00.955Z,18.23
2022-11-09T02:11:36.244Z,22.48
2022-11-09T02:14:11.237Z,18.95
2022-11-09T02:16:46.215Z,19.07
2022-11-09T02:19:19.844Z,16.90
2022-11-09T02:21:54.650Z,17.62
2022-11-09T02:24:29.819Z,16.57
2022-11-09T02:27:04.043Z,13.98
2022-11-09T02:29:40.994Z,16.25
2022-11-09T02:32:18.329Z,17.73
2022-11-09T02:34:52.137Z,16.12
2022-11-09T02:37:30.632Z,16.15
2022-11-09T02:40:07.321Z,15.00
2022-11-09T02:42:41.847Z,18.00
2022-11-09T02:45:15.327Z,16.12
2022-11-09T02:47:49.107Z,18.07
2022-11-09T02:50:22.516Z,16.00
2022-11-09T02:52:56.054Z,15.20
2022-11-09T02:55:29.373Z,17.00
2022-11-09T02:58:02.990Z,17.98
2022-11-09T03:00:36.478Z,14.47
2022-11-09T03:03:10.806Z,15.83
2022-11-09T03:05:45.160Z,15.45
2022-11-09T03:08:19.387Z,15.58
2022-11-09T03:10:53.975Z,14.68
2022-11-09T03:13:27.710Z,15.03
2022-11-09T03:18:48.095Z,17.70
2022-11-09T03:21:22.188Z,16.17
2022-11-09T03:23:57.564Z,15.55
2022-11-09T03:26:30.981Z,16.73
2022-11-09T03:29:04.884Z,15.00
2022-11-09T03:31:40.071Z,13.25
2022-11-09T03:34:14.864Z,16.02
2022-11-09T03:36:48.405Z,12.37
2022-11-09T03:39:22.740Z,14.73
2022-11-09T03:41:56.175Z,12.33
2022-11-09T03:44:30.880Z,12.50
2022-11-09T03:47:04.598Z,15.83
2022-11-09T03:49:37.916Z,9.25
2022-11-09T03:52:11.526Z,14.10
2022-11-09T03:54:45.252Z,10.28
2022-11-09T03:57:18.739Z,10.98
2022-11-09T03:59:51.992Z,13.13
2022-11-09T04:02:25.424Z,12.43
2022-11-09T04:04:58.968Z,14.47
2022-11-09T04:10:22.097Z,13.43
2022-11-09T04:12:55.607Z,14.07
2022-11-09T04:15:28.993Z,14.65
2022-11-09T04:18:03.628Z,13.90
2022-11-09T04:20:37.122Z,13.48
2022-11-09T04:23:12.579Z,11.20
2022-11-09T04:25:46.163Z,12.90
2022-11-09T04:28:21.365Z,11.50
2022-11-09T04:30:54.895Z,12.50
2022-11-09T04:33:30.240Z,14.05
2022-11-09T04:36:07.799Z,14.45
2022-11-09T04:38:40.858Z,15.68
2022-11-09T04:41:14.493Z,9.85
2022-11-09T04:43:47.717Z,13.70
2022-11-09T04:46:21.046Z,10.72
2022-11-09T04:49:06.036Z,11.25
2022-11-09T04:51:39.943Z,13.13
2022-11-09T04:54:13.864Z,15.23
2022-11-09T04:56:47.272Z,12.25
2022-11-09T04:59:20.975Z,12.47
2022-11-09T05:01:54.367Z,11.28
2022-11-09T05:07:04.971Z,13.22
2022-11-09T05:09:38.277Z,12.85
2022-11-09T05:12:12.595Z,12.68
2022-11-09T05:14:45.928Z,12.90
2022-11-09T05:17:19.394Z,13.30
2022-11-09T05:19:55.866Z,11.80
2022-11-09T05:22:44.854Z,13.45
2022-11-09T05:25:18.649Z,12.53
2022-11-09T05:27:51.813Z,12.28
2022-11-09T05:30:25.365Z,11.28
2022-11-09T05:32:59.095Z,11.28
2022-11-09T05:35:32.466Z,13.18
2022-11-09T05:38:06.048Z,9.63
2022-11-09T05:40:39.713Z,12.40
2022-11-09T05:43:13.072Z,11.65
2022-11-09T05:45:47.271Z,13.45
2022-11-09T05:48:21.379Z,12.05
2022-11-09T05:50:54.947Z,14.85
2022-11-09T05:53:30.502Z,14.07
2022-11-09T05:56:09.576Z,14.90
2022-11-09T05:58:43.002Z,12.25
2022-11-09T06:01:18.830Z,14.68
2022-11-09T06:03:53.771Z,10.98
2022-11-09T06:06:30.262Z,11.12
2022-11-09T06:09:04.027Z,13.08
2022-11-09T06:11:37.247Z,6.75
2022-11-09T06:14:10.547Z,13.65
2022-11-09T06:16:44.030Z,15.00
2022-11-09T06:19:17.618Z,12.28
2022-11-09T06:21:51.008Z,11.10
2022-11-09T06:24:24.325Z,12.35
2022-11-09T06:26:58.359Z,13.20
2022-11-09T06:29:32.028Z,12.63
2022-11-09T06:32:05.636Z,14.28
2022-11-09T06:34:39.189Z,11.38
2022-11-09T06:37:13.204Z,11.50
2022-11-09T06:39:47.600Z,14.15
2022-11-09T06:42:21.395Z,11.48
2022-11-09T06:44:55.207Z,14.18
2022-11-09T06:47:30.352Z,14.55
2022-11-09T06:50:04.073Z,12.68
2022-11-09T06:52:37.570Z,16.15
2022-11-09T06:55:12.767Z,13.72
2022-11-09T06:57:46.195Z,14.18
2022-11-09T07:00:21.808Z,12.30
2022-11-09T07:02:55.331Z,12.70
2022-11-09T07:05:29.012Z,12.10
2022-11-09T07:08:02.358Z,13.60
2022-11-09T07:10:35.736Z,11.38
2022-11-09T07:13:10.275Z,13.13
2022-11-09T07:15:43.743Z,13.58
2022-11-09T07:18:17.179Z,11.30
2022-11-09T07:20:50.715Z,9.53
2022-11-09T07:23:24.164Z,12.80
2022-11-09T07:25:59.356Z,10.98
2022-11-09T07:28:32.743Z,12.40
2022-11-09T07:31:06.476Z,11.80
2022-11-09T07:33:39.660Z,12.00
2022-11-09T07:36:18.277Z,11.25
2022-11-09T07:38:48.520Z,8.00
2022-11-09T07:41:22.419Z,13.65
2022-11-09T07:43:55.990Z,13.32
2022-11-09T07:46:29.372Z,13.70
2022-11-09T07:49:02.709Z,13.55
2022-11-09T07:51:37.437Z,13.15
2022-11-09T07:54:11.809Z,12.37
2022-11-09T07:56:45.461Z,12.23
2022-11-09T07:59:18.895Z,8.80
2022-11-09T08:01:52.538Z,12.65
2022-11-09T08:04:26.196Z,12.90
2022-11-09T08:06:59.454Z,11.65
2022-11-09T08:09:33.289Z,13.32
2022-11-09T08:12:07.248Z,12.28
2022-11-09T08:14:40.858Z,11.75
2022-11-09T08:17:14.461Z,12.47
2022-11-09T08:19:47.862Z,12.78
2022-11-09T08:22:21.325Z,15.95
2022-11-09T08:24:54.785Z,13.95
2022-11-09T08:27:29.833Z,11.55
2022-11-09T08:30:03.508Z,10.93
2022-11-09T08:32:36.950Z,11.60
2022-11-09T08:35:14.540Z,12.60
2022-11-09T08:37:49.176Z,12.95
2022-11-09T08:40:24.728Z,13.48
2022-11-09T08:42:59.695Z,9.13
2022-11-09T08:45:34.910Z,13.83
2022-11-09T08:48:09.894Z,13.30
2022-11-09T08:50:43.046Z,10.85
2022-11-09T08:53:16.361Z,10.72
2022-11-09T08:55:49.859Z,10.98
2022-11-09T08:58:23.787Z,12.28
2022-11-09T09:00:57.192Z,10.80
2022-11-09T09:03:30.568Z,7.33
2022-11-09T09:06:07.633Z,12.88
2022-11-09T09:08:41.049Z,9.70
2022-11-09T09:11:15.429Z,12.10
2022-11-09T09:13:48.865Z,13.22
2022-11-09T09:16:22.464Z,14.13
2022-11-09T09:18:56.182Z,13.30
2022-11-09T09:21:29.772Z,8.93
2022-11-09T09:24:03.129Z,10.40
2022-11-09T09:26:36.960Z,10.70
2022-11-09T09:29:11.854Z,11.25
2022-11-09T09:31:45.232Z,11.57
2022-11-09T09:34:18.833Z,12.33
2022-11-09T09:36:54.691Z,11.73
2022-11-09T09:39:28.365Z,10.18
2022-11-09T09:42:04.993Z,11.53
2022-11-09T09:44:41.260Z,12.80
2022-11-09T09:47:16.974Z,10.45
2022-11-09T09:49:53.559Z,10.82
2022-11-09T09:52:30.703Z,10.93
2022-11-09T09:55:07.322Z,11.05
2022-11-09T09:57:42.414Z,12.50
2022-11-09T10:00:23.155Z,10.95
2022-11-09T10:02:57.230Z,12.07
2022-11-09T10:05:34.209Z,12.93
2022-11-09T10:08:10.359Z,13.78
2022-11-09T10:10:47.054Z,15.28
2022-11-09T10:13:38.887Z,12.88
2022-11-09T10:16:16.158Z,15.28
2022-11-09T10:18:59.274Z,14.03
2022-11-09T10:21:38.868Z,11.60
2022-11-09T10:24:18.809Z,12.53
2022-11-09T10:26:54.472Z,11.88
2022-11-09T10:29:29.900Z,9.00
2022-11-09T10:32:08.953Z,10.30
2022-11-09T10:34:45.790Z,11.05
2022-11-09T10:37:22.057Z,11.60
2022-11-09T10:39:58.604Z,10.55
2022-11-09T10:42:52.649Z,9.85
2022-11-09T10:45:45.727Z,10.55
2022-11-09T10:48:39.250Z,10.23
2022-11-09T10:51:39.751Z,9.88
2022-11-09T10:54:33.964Z,8.90
2022-11-09T10:57:26.932Z,8.73
2022-11-09T11:00:21.028Z,9.18
2022-11-09T11:03:18.326Z,8.88
2022-11-09T11:06:12.993Z,6.85
2022-11-09T11:09:19.824Z,9.53
2022-11-09T11:12:17.810Z,4.35
2022-11-09T11:15:21.579Z,6.55
2022-11-09T11:21:32.900Z,8.50
2022-11-09T11:24:23.944Z,9.15
2022-11-09T11:27:18.232Z,9.83
2022-11-09T11:30:15.179Z,10.38
2022-11-09T11:33:11.140Z,12.33
2022-11-09T11:36:06.332Z,10.70
2022-11-09T11:39:01.725Z,9.75
2022-11-09T11:42:03.961Z,9.35
2022-11-09T11:45:38.439Z,9.70
2022-11-09T11:48:05.026Z,8.28
2022-11-09T11:53:57.728Z,8.45
2022-11-09T11:56:51.982Z,9.78
2022-11-09T12:00:06.149Z,8.15
2022-11-09T12:03:35.509Z,8.23
2022-11-09T12:06:54.716Z,8.13
2022-11-09T12:10:31.352Z,8.15
2022-11-09T12:13:43.445Z,7.72
2022-11-09T12:16:37.464Z,8.13
2022-11-09T12:19:40.758Z,10.32
2022-11-09T12:22:36.941Z,9.08
2022-11-09T12:25:31.362Z,7.03
2022-11-09T12:28:31.397Z,6.67
2022-11-09T12:31:27.918Z,8.00
2022-11-09T12:34:22.215Z,5.87
2022-11-09T12:37:16.314Z,8.50
2022-11-09T12:40:15.101Z,7.05
2022-11-09T12:43:09.346Z,8.53
2022-11-09T12:46:02.372Z,7.97
2022-11-09T12:48:54.915Z,8.10
2022-11-09T12:51:46.373Z,8.45
2022-11-09T12:54:39.491Z,7.42
2022-11-09T12:57:33.472Z,8.53
2022-11-09T13:03:36.605Z,8.48
2022-11-09T13:06:29.491Z,8.95
2022-11-09T13:09:25.785Z,7.60
2022-11-09T13:12:22.786Z,5.90
2022-11-09T13:15:25.834Z,7.80
2022-11-09T13:18:30.433Z,9.58
2022-11-09T13:25:02.493Z,9.18
2022-11-09T13:27:53.745Z,7.83
2022-11-09T13:30:45.470Z,7.97
2022-11-09T13:33:39.778Z,8.78
2022-11-09T13:36:31.112Z,9.00
2022-11-09T13:39:41.434Z,9.20
2022-11-09T13:42:36.131Z,9.30
2022-11-09T13:45:33.606Z,7.95
2022-11-09T13:48:43.428Z,8.50
2022-11-09T13:51:48.259Z,8.83
2022-11-09T13:54:45.602Z,7.92
2022-11-09T13:57:38.243Z,8.78
2022-11-09T14:00:29.778Z,8.95
2022-11-09T14:03:23.742Z,9.93
2022-11-09T14:06:15.238Z,9.18
2022-11-09T14:09:06.892Z,10.75
2022-11-09T14:12:06.550Z,11.70
2022-11-09T14:15:23.113Z,10.80
2022-11-09T14:18:21.041Z,10.82
2022-11-09T14:21:19.119Z,11.40
2022-11-09T14:24:19.768Z,13.38
2022-11-09T14:27:20.421Z,8.25
2022-11-09T14:30:22.602Z,11.20
2022-11-09T14:33:24.637Z,13.08
2022-11-09T14:36:18.084Z,11.85
2022-11-09T14:39:15.425Z,9.28
2022-11-09T14:44:58.913Z,11.38
2022-11-09T14:47:53.193Z,11.97
2022-11-09T14:50:45.206Z,11.22
2022-11-09T14:53:39.009Z,12.85
2022-11-09T14:56:34.075Z,11.60
2022-11-09T14:59:28.358Z,14.20
2022-11-09T15:02:21.202Z,10.63
2022-11-09T15:05:33.106Z,14.33
2022-11-09T15:08:24.862Z,11.90
2022-11-09T15:11:16.044Z,11.45
2022-11-09T15:14:15.872Z,14.43
2022-11-09T15:17:11.004Z,12.47
2022-11-09T15:20:05.881Z,11.65
2022-11-09T15:22:59.300Z,10.48
2022-11-09T15:25:59.490Z,12.20
2022-11-09T15:28:51.627Z,9.95
2022-11-09T15:31:58.726Z,9.13
2022-11-09T15:34:58.372Z,11.73
2022-11-09T15:37:55.813Z,11.73
2022-11-09T15:40:46.820Z,10.55
2022-11-09T15:43:38.034Z,13.75
2022-11-09T15:46:31.369Z,12.10
2022-11-09T15:49:25.377Z,12.37
2022-11-09T15:52:16.105Z,12.18
2022-11-09T15:55:08.018Z,12.85
2022-11-09T15:57:58.853Z,11.12
2022-11-09T16:00:50.404Z,12.82
2022-11-09T16:03:41.613Z,9.25
2022-11-09T16:06:32.757Z,11.03
2022-11-09T16:09:23.842Z,11.55
2022-11-09T16:12:14.823Z,9.70
2022-11-09T16:15:06.328Z,10.70
2022-11-09T16:17:57.409Z,12.35
2022-11-09T16:20:48.467Z,14.47
2022-11-09T16:23:39.948Z,13.62
2022-11-09T16:26:32.124Z,14.35
2022-11-09T16:29:25.859Z,15.68
2022-11-09T16:32:17.207Z,15.48
2022-11-09T16:35:28.367Z,13.93
2022-11-09T16:38:05.253Z,14.07
2022-11-09T16:40:56.362Z,13.00
2022-11-09T16:43:48.897Z,14.55
2022-11-09T16:46:41.373Z,15.53
2022-11-09T16:49:33.389Z,21.10
2022-11-09T16:52:26.105Z,14.63
2022-11-09T16:55:17.579Z,18.10
2022-11-09T16:58:09.109Z,18.73
2022-11-09T17:01:20.535Z,14.87
2022-11-09T17:03:52.849Z,14.98
2022-11-09T17:06:44.025Z,13.88
2022-11-09T17:09:37.103Z,16.50
2022-11-09T17:12:28.180Z,16.20
2022-11-09T17:15:20.206Z,13.00
2022-11-09T17:18:13.057Z,16.67
2022-11-09T17:21:04.273Z,12.70
2022-11-09T17:23:57.024Z,15.50
2022-11-09T17:26:48.094Z,17.17
2022-11-09T17:29:39.398Z,16.80
2022-11-09T17:32:30.745Z,12.15
2022-11-09T17:35:22.165Z,14.65
2022-11-09T17:38:13.657Z,15.10
2022-11-09T17:41:09.559Z,12.68
2022-11-09T17:44:04.095Z,11.85
2022-11-09T17:46:55.571Z,16.17
2022-11-09T17:49:46.894Z,13.38
2022-11-09T17:55:24.017Z,12.43
2022-11-09T17:58:15.151Z,14.43
2022-11-09T18:01:10.206Z,11.10
2022-11-09T18:04:06.342Z,13.78
2022-11-09T18:06:55.666Z,10.15
2022-11-09T18:09:47.487Z,12.20
2022-11-09T18:12:38.777Z,14.03
2022-11-09T18:15:30.269Z,10.25
2022-11-09T18:18:22.157Z,11.78
2022-11-09T18:21:15.701Z,9.63
2022-11-09T18:24:08.230Z,9.73
2022-11-09T18:26:59.546Z,10.48
2022-11-09T18:29:50.531Z,9.90
2022-11-09T18:32:42.021Z,11.08
2022-11-09T18:35:33.489Z,8.83
2022-11-09T18:38:29.133Z,10.98
2022-11-09T18:41:19.574Z,10.20
2022-11-09T18:44:11.218Z,8.25
2022-11-09T18:47:05.598Z,9.50
2022-11-09T18:49:55.843Z,10.08
2022-11-09T18:52:47.711Z,10.00
2022-11-09T18:55:38.916Z,8.63
2022-11-09T18:58:30.800Z,8.85
2022-11-09T19:01:24.533Z,7.83
2022-11-09T19:04:17.534Z,7.30
2022-11-09T19:07:08.991Z,8.65
2022-11-09T19:10:01.154Z,11.57
2022-11-09T19:12:52.682Z,10.00
2022-11-09T19:15:47.041Z,8.98
2022-11-09T19:18:38.518Z,6.10
2022-11-09T19:21:40.094Z,8.53
2022-11-09T19:24:31.611Z,8.10
2022-11-09T19:27:24.837Z,8.58
2022-11-09T19:30:16.774Z,8.93
2022-11-09T19:33:11.039Z,8.43
2022-11-09T19:36:28.507Z,8.48
2022-11-09T19:38:56.347Z,10.58
2022-11-09T19:41:48.133Z,9.63
2022-11-09T19:44:41.205Z,8.58
2022-11-09T19:47:33.980Z,10.25
2022-11-09T19:50:25.588Z,9.28
2022-11-09T19:53:18.154Z,7.08
2022-11-09T19:56:11.787Z,9.20
2022-11-09T19:59:04.930Z,6.90
2022-11-09T20:01:57.031Z,8.45
2022-11-09T20:04:50.177Z,7.92
2022-11-09T20:07:41.540Z,8.18
2022-11-09T20:10:32.999Z,9.10
2022-11-09T20:13:25.503Z,8.60
2022-11-09T20:16:17.055Z,7.08
2022-11-09T20:19:10.293Z,8.45
2022-11-09T20:22:01.953Z,9.43
2022-11-09T20:24:53.471Z,6.85
2022-11-09T20:27:45.507Z,8.00
2022-11-09T20:30:38.846Z,6.95
2022-11-09T20:33:30.363Z,7.60
2022-11-09T20:36:22.020Z,6.87
2022-11-09T20:39:13.728Z,6.62
2022-11-09T20:42:12.239Z,7.45
2022-11-09T20:45:06.168Z,7.37
2022-11-09T20:48:10.580Z,8.53
2022-11-09T20:50:50.747Z,7.55
2022-11-09T20:53:42.442Z,8.83
2022-11-09T20:56:34.102Z,7.15
2022-11-09T20:59:25.495Z,6.90
2022-11-09T21:02:18.186Z,5.90
2022-11-09T21:05:10.687Z,9.33
2022-11-09T21:08:02.762Z,7.30
2022-11-09T21:10:54.120Z,7.42
2022-11-09T21:13:47.409Z,8.40
2022-11-09T21:16:38.877Z,7.20
2022-11-09T21:19:30.817Z,7.72
2022-11-09T21:22:22.154Z,9.23
2022-11-09T21:25:31.234Z,9.68
2022-11-09T21:28:47.913Z,6.15
2022-11-09T21:31:39.131Z,9.95
2022-11-09T21:34:36.228Z,8.23
2022-11-09T21:37:24.606Z,9.58
2022-11-09T21:40:15.843Z,7.55
2022-11-09T21:43:07.736Z,8.25
2022-11-09T21:45:59.075Z,5.17
2022-11-09T21:48:50.436Z,8.55
2022-11-09T21:51:42.636Z,6.78
2022-11-09T21:54:34.194Z,9.05
2022-11-09T21:57:25.802Z,6.45
2022-11-09T22:00:19.897Z,7.08
2022-11-09T22:03:11.272Z,8.48
2022-11-09T22:06:03.176Z,9.45
2022-11-09T22:08:55.124Z,8.85
2022-11-09T22:12:05.105Z,8.43
2022-11-09T22:15:14.166Z,8.38
2022-11-09T22:18:06.062Z,6.65
2022-11-09T22:21:04.588Z,8.45
2022-11-09T22:23:58.406Z,6.97
2022-11-09T22:26:50.079Z,7.67
2022-11-09T22:29:41.590Z,8.45
2022-11-09T22:32:34.155Z,7.30
2022-11-09T22:35:25.799Z,8.05
2022-11-09T22:38:17.111Z,7.45
2022-11-09T22:41:10.581Z,7.75
2022-11-09T22:44:01.686Z,7.12
2022-11-09T22:46:52.863Z,8.80
2022-11-09T22:49:44.257Z,7.05
2022-11-09T22:52:35.535Z,7.72
2022-11-09T22:55:26.950Z,7.60
2022-11-09T22:58:18.299Z,8.73
2022-11-09T23:01:12.687Z,6.20
2022-11-09T23:04:04.274Z,7.00
2022-11-09T23:06:55.553Z,10.08
2022-11-09T23:09:46.980Z,8.70
2022-11-09T23:12:38.372Z,8.40
2022-11-09T23:15:30.267Z,9.70
2022-11-09T23:18:39.113Z,6.12
2022-11-09T23:21:32.748Z,10.05
2022-11-09T23:24:42.923Z,7.78
2022-11-09T23:27:34.432Z,7.90
2022-11-09T23:30:26.726Z,7.97
2022-11-09T23:33:18.566Z,7.30
2022-11-09T23:36:11.949Z,7.60
2022-11-09T23:39:03.556Z,6.95
2022-11-09T23:41:55.324Z,6.95
2022-11-09T23:44:46.374Z,8.65
2022-11-09T23:47:37.655Z,8.55
2022-11-09T23:50:29.671Z,9.40
2022-11-09T23:53:21.583Z,7.28
2022-11-09T23:56:14.801Z,8.90
2022-11-09T23:59:06.325Z,10.23
